Time;durP1;ratioP1;P1;durP2;ratioP2;P2;SDS_P1;SDS_P2;PMS_P1;PMS_P2;Temp;Humidity;BMP_temperature;BMP_pressure;BME280_temperature;BME280_humidity;BME280_pressure;Samples;Min_cycle;Max_cycle;Signal;HPM_P1;HPM_P2
2022/07/03 07:54:02;;;;;;;;;;;;;;;24.83;52.67;97220.22;5179708;22;1583958;-77
2022/07/03 07:56:05;;;;;;;;;;;;;;;24.98;52.59;97222.88;5232029;22;6103;-78
2022/07/03 07:58:09;;;;;;;;;;;;;;;25.10;52.33;97211.78;5232123;22;5724;-78
2022/07/03 08:00:14;;;;;;;;;;;;;;;25.19;52.16;97206.63;5231890;22;5711;-78
2022/07/03 08:06:59;;;;;;;;;;;;;;;25.33;51.71;97213.03;5229741;22;5699;-78
2022/07/03 08:09:04;;;;;;;;;;;;;;;25.33;51.55;97207.63;5229927;22;5723;-77
2022/07/03 08:11:07;;;;;;;;;;;;;;;25.35;51.34;97213.56;5228986;22;5715;-78
2022/07/03 08:13:10;;;;;;;;;;;;;;;25.41;50.93;97207.06;5230626;22;5707;-68
2022/07/03 08:15:13;;;;;;;;;;;;;;;25.45;50.97;97210.81;5229437;22;5722;-66
2022/07/03 08:17:16;;;;;;;;;;;;;;;25.48;50.96;97209.44;5231497;22;5794;-66
2022/07/03 08:19:19;;;;;;;;;;;;;;;25.47;50.41;97214.03;5231573;22;5715;-67
2022/07/03 08:21:22;;;;;;;;;;;;;;;25.48;50.46;97206.72;5232007;22;5702;-66
2022/07/03 08:23:25;;;;;;;;;;;;;;;25.51;50.45;97209.72;5231835;22;5044;-66
2022/07/03 08:25:29;;;;;;;;;;;;;;;25.54;50.00;97214.56;5230343;22;6409;-66
2022/07/03 08:27:32;;;;;;;;;;;;;;;25.58;49.87;97214.00;5230373;22;5786;-66
2022/07/03 08:29:35;;;;;;;;;;;;;;;25.61;49.70;97205.34;5231103;22;6270;-66
2022/07/03 08:31:38;;;;;;;;;;;;;;;25.61;49.60;97202.63;5231841;22;5699;-66
2022/07/03 08:33:41;;;;;;;;;;;;;;;25.63;49.74;97201.25;5231710;22;5695;-67
2022/07/03 08:35:44;;;;;;;;;;;;;;;25.66;49.39;97205.28;5231906;22;5711;-67
2022/07/03 08:37:47;;;;;;;;;;;;;;;25.67;49.47;97209.63;5231516;22;5711;-67
2022/07/03 08:39:50;;;;;;;;;;;;;;;25.66;49.29;97208.00;5229695;22;5702;-66
2022/07/03 08:41:56;;;;;;;;;;;;;;;25.66;48.82;97200.69;5230904;22;5743;-65
2022/07/03 08:44:00;;;;;;;;;;;;;;;25.69;48.77;97193.91;5229543;22;5755;-65
2022/07/03 08:46:03;;;;;;;;;;;;;;;25.69;49.17;97199.31;5230630;22;5797;-65
2022/07/03 08:48:08;;;;;;;;;;;;;;;25.70;48.98;97195.53;5230858;22;5778;-66
2022/07/03 08:50:13;;;;;;;;;;;;;;;25.70;49.02;97201.78;5224350;22;5896;-65
2022/07/03 08:52:16;;;;;;;;;;;;;;;25.71;48.98;97189.88;5225367;22;5809;-66
2022/07/03 08:54:19;;;;;;;;;;;;;;;25.71;48.63;97197.16;5224773;22;5775;-66
2022/07/03 08:56:23;;;;;;;;;;;;;;;25.73;48.89;97189.59;5224499;22;5682;-67
2022/07/03 08:58:30;;;;;;;;;;;;;;;25.74;48.53;97183.09;5220238;22;5731;-67
2022/07/03 09:00:33;;;;;;;;;;;;;;;25.77;48.71;97177.91;5224817;22;5599;-66
2022/07/03 09:02:40;;;;;;;;;;;;;;;25.80;48.46;97177.34;5223874;22;5651;-66
2022/07/03 09:04:44;;;;;;;;;;;;;;;25.81;48.67;97181.66;5225319;22;5611;-66
2022/07/03 09:06:47;;;;;;;;;;;;;;;25.85;48.54;97181.13;5225757;22;5628;-67
2022/07/03 09:08:57;;;;;;;;;;;;;;;25.83;48.52;97174.09;5225120;22;5638;-66
2022/07/03 09:11:01;;;;;;;;;;;;;;;25.85;48.31;97170.28;5225407;22;5790;-67
2022/07/03 09:13:04;;;;;;;;;;;;;;;25.85;48.61;97165.69;5225218;22;5757;-67
2022/07/03 09:15:10;;;;;;;;;;;;;;;25.87;48.43;97168.09;5224681;22;5595;-67
2022/07/03 09:17:13;;;;;;;;;;;;;;;25.88;48.21;97162.41;5223837;22;5678;-66
2022/07/03 09:19:36;;;;;;;;;;;;;;;25.87;48.53;97168.91;5221685;22;5733;-66
2022/07/03 09:21:40;;;;;;;;;;;;;;;25.92;48.53;97170.75;5221314;22;5682;-66
2022/07/03 09:23:44;;;;;;;;;;;;;;;25.94;48.14;97165.88;5220093;22;5727;-68
2022/07/03 09:25:57;;;;;;;;;;;;;;;25.95;48.32;97170.22;5222359;22;5754;-67
2022/07/03 09:28:00;;;;;;;;;;;;;;;25.96;48.16;97172.63;5221926;22;5682;-66
2022/07/03 09:30:05;;;;;;;;;;;;;;;25.98;48.30;97164.22;5221101;22;5711;-65
2022/07/03 09:32:10;;;;;;;;;;;;;;;25.99;48.35;97165.84;5222261;22;5702;-66
2022/07/03 09:34:13;;;;;;;;;;;;;;;26.03;48.31;97164.16;5193814;22;5733;-66
2022/07/03 09:36:16;;;;;;;;;;;;;;;26.03;48.03;97162.28;5221406;22;5808;-66
2022/07/03 09:40:48;;;;;;;;;;;;;;;26.03;48.05;97169.59;5142707;23;5759;-66
2022/07/03 09:42:59;;;;;;;;;;;;;;;26.02;47.97;97163.38;5143280;23;5766;-66
2022/07/03 09:45:02;;;;;;;;;;;;;;;26.04;47.80;97154.94;5142626;23;5769;-66
2022/07/03 09:47:11;;;;;;;;;;;;;;;26.04;47.97;97163.88;5117623;23;5801;-65
2022/07/03 09:49:14;;;;;;;;;;;;;;;26.06;47.74;97164.44;5143033;23;5758;-65
2022/07/03 09:51:23;;;;;;;;;;;;;;;26.07;48.00;97162.53;5143049;23;5810;-65
2022/07/03 09:53:26;;;;;;;;;;;;;;;26.09;47.57;97160.34;5142871;23;5762;-66
2022/07/03 09:55:29;;;;;;;;;;;;;;;26.09;48.07;97155.72;5142843;23;5110;-66
2022/07/03 09:57:32;;;;;;;;;;;;;;;26.10;47.87;97160.06;5142803;23;5766;-66
2022/07/03 09:59:35;;;;;;;;;;;;;;;26.12;47.84;97154.34;5141861;23;5767;-66
2022/07/03 10:01:40;;;;;;;;;;;;;;;26.13;47.60;97156.78;5141813;23;5771;-66
2022/07/03 10:03:44;;;;;;;;;;;;;;;26.13;47.54;97156.78;5141639;23;5759;-66
2022/07/03 10:05:47;;;;;;;;;;;;;;;26.16;47.53;97154.56;5117654;23;5850;-66
2022/07/03 10:07:58;;;;;;;;;;;;;;;26.20;47.42;97158.34;5142714;23;5758;-66
2022/07/03 10:10:01;;;;;;;;;;;;;;;26.23;47.58;97153.16;5142628;23;5911;-66
2022/07/03 10:12:05;;;;;;;;;;;;;;;26.27;47.47;97148.78;5142834;23;5751;-66
2022/07/03 10:14:09;;;;;;;;;;;;;;;26.31;47.38;97152.56;5142932;23;5811;-66
2022/07/03 10:16:13;;;;;;;;;;;;;;;26.34;47.05;97148.47;5142502;23;5750;-66
2022/07/03 10:18:21;;;;;;;;;;;;;;;26.36;47.38;97148.97;5181676;22;5803;-66
2022/07/03 10:20:32;;;;;;;;;;;;;;;26.42;47.26;97138.94;5221678;22;5690;-66
2022/07/03 10:22:39;;;;;;;;;;;;;;;26.43;47.09;97143.28;5221560;22;5135;-66
2022/07/03 10:24:43;;;;;;;;;;;;;;;26.45;46.49;97143.78;5221539;22;5714;-66
2022/07/03 10:26:48;;;;;;;;;;;;;;;26.46;46.40;97142.69;5221694;22;5690;-66
2022/07/03 10:28:52;;;;;;;;;;;;;;;26.44;46.27;97134.84;5221750;22;7341;-67
2022/07/03 10:30:56;;;;;;;;;;;;;;;26.43;46.47;97135.94;5221751;22;5698;-65
2022/07/03 10:32:59;;;;;;;;;;;;;;;26.41;46.34;97140.84;5221321;22;5698;-65
2022/07/03 10:35:03;;;;;;;;;;;;;;;26.42;45.96;97137.03;5221738;22;5690;-66
2022/07/03 10:37:07;;;;;;;;;;;;;;;26.47;45.84;97136.16;5221727;22;5707;-66
2022/07/03 10:39:19;;;;;;;;;;;;;;;26.51;45.81;97127.19;5192810;22;5745;-66
2022/07/03 10:46:14;;;;;;;;;;;;;;;26.59;45.17;97129.25;5221871;22;5709;-66
2022/07/03 10:48:17;;;;;;;;;;;;;;;26.63;45.12;97130.31;5220507;22;5693;-68
2022/07/03 10:50:22;;;;;;;;;;;;;;;26.64;44.94;97126.50;5221315;22;5721;-67
2022/07/03 10:52:26;;;;;;;;;;;;;;;26.66;44.67;97118.06;5221500;22;5714;-66
2022/07/03 10:54:30;;;;;;;;;;;;;;;26.66;44.88;97124.31;5221314;22;5918;-66
2022/07/03 10:56:33;;;;;;;;;;;;;;;26.69;44.51;97121.00;5223135;22;5694;-67
2022/07/03 10:58:55;;;;;;;;;;;;;;;26.67;44.43;97115.06;5223952;22;5761;-66
2022/07/03 11:00:58;;;;;;;;;;;;;;;26.66;44.55;97116.16;5223897;22;5745;-66
2022/07/03 11:03:01;;;;;;;;;;;;;;;26.67;44.31;97120.50;5223601;22;5800;-66
2022/07/03 11:05:09;;;;;;;;;;;;;;;26.75;44.46;97120.97;5223507;22;5662;-66
2022/07/03 11:07:14;;;;;;;;;;;;;;;26.81;43.89;97117.09;5226027;22;5701;-66
2022/07/03 11:09:18;;;;;;;;;;;;;;;26.85;43.91;97115.44;5221262;22;5719;-66
2022/07/03 11:14:22;;;;;;;;;;;;;;;26.88;43.63;97117.56;5223461;22;5705;-66
2022/07/03 11:16:25;;;;;;;;;;;;;;;26.88;43.61;97117.56;5217990;22;5695;-66
2022/07/03 11:18:33;;;;;;;;;;;;;;;26.89;43.41;97119.97;5223565;22;5189;-67
2022/07/03 11:20:37;;;;;;;;;;;;;;;26.91;43.25;97115.06;5222208;22;5671;-67
2022/07/03 11:22:50;;;;;;;;;;;;;;;26.94;43.08;97114.47;5195266;22;6409;-66
2022/07/03 11:24:56;;;;;;;;;;;;;;;26.92;42.81;97113.16;5221305;22;5711;-65
2022/07/03 11:27:19;;;;;;;;;;;;;;;26.87;42.99;97114.03;5222258;22;5067;-66
2022/07/03 11:29:29;;;;;;;;;;;;;;;26.84;42.88;97105.66;5195605;22;5744;-66
2022/07/03 11:31:32;;;;;;;;;;;;;;;26.82;42.63;97113.28;5220449;22;5690;-66
2022/07/03 11:33:44;;;;;;;;;;;;;;;26.78;42.75;97102.19;5220780;22;5698;-66
2022/07/03 11:35:53;;;;;;;;;;;;;;;26.79;42.74;97100.28;5220602;22;5709;-66
2022/07/03 11:37:56;;;;;;;;;;;;;;;26.78;42.34;97093.25;5193621;22;5921;-66
2022/07/03 11:40:04;;;;;;;;;;;;;;;26.79;42.26;97097.59;5217416;22;5686;-66
2022/07/03 11:42:07;;;;;;;;;;;;;;;26.78;42.35;97088.63;5221190;22;5701;-66
2022/07/03 11:44:14;;;;;;;;;;;;;;;26.78;42.02;97085.13;5221549;22;5703;-66
2022/07/03 11:46:19;;;;;;;;;;;;;;;26.76;42.21;97076.47;5194094;22;5736;-66
2022/07/03 11:48:25;;;;;;;;;;;;;;;26.76;42.41;97081.91;5193867;22;5740;-66
2022/07/03 11:50:37;;;;;;;;;;;;;;;26.80;41.90;97078.31;5221538;22;5710;-67
2022/07/03 11:52:40;;;;;;;;;;;;;;;26.89;41.72;97071.16;5221534;22;6953;-66
2022/07/03 11:54:53;;;;;;;;;;;;;;;26.89;41.59;97070.34;5193431;22;5708;-67
2022/07/03 11:56:57;;;;;;;;;;;;;;;26.85;41.80;97074.75;5221672;22;5703;-67
2022/07/03 11:59:02;;;;;;;;;;;;;;;26.85;41.53;97069.31;5221414;22;5709;-67
2022/07/03 12:01:05;;;;;;;;;;;;;;;26.86;41.62;97074.44;5221445;22;5702;-66
2022/07/03 12:03:08;;;;;;;;;;;;;;;26.85;41.93;97072.84;5221659;22;6376;-66
2022/07/03 12:05:15;;;;;;;;;;;;;;;26.91;41.63;97077.06;5221455;22;5694;-66
2022/07/03 12:07:25;;;;;;;;;;;;;;;26.95;41.31;97066.44;5193815;22;6536;-67
2022/07/03 12:09:30;;;;;;;;;;;;;;;26.92;41.30;97058.91;5219485;22;6972;-66
2022/07/03 12:11:33;;;;;;;;;;;;;;;26.90;41.51;97063.81;5221444;22;5701;-67
2022/07/03 12:13:38;;;;;;;;;;;;;;;26.92;41.09;97059.69;5221209;22;5781;-67
2022/07/03 12:15:41;;;;;;;;;;;;;;;26.94;41.12;97048.56;5221262;22;5690;-67
2022/07/03 12:17:46;;;;;;;;;;;;;;;26.90;41.10;97042.09;5221477;22;5831;-67
2022/07/03 12:19:50;;;;;;;;;;;;;;;26.90;41.08;97037.50;5221185;22;5686;-67
2022/07/03 12:21:53;;;;;;;;;;;;;;;26.88;41.02;97041.59;5221313;22;5702;-67
2022/07/03 12:23:57;;;;;;;;;;;;;;;26.87;41.24;97040.78;5221085;22;5710;-66
2022/07/03 12:25:59;;;;;;;;;;;;;;;26.89;41.00;97032.38;5222798;22;5754;-66
2022/07/03 12:28:03;;;;;;;;;;;;;;;26.95;41.12;97036.59;5222860;22;5706;-66
2022/07/03 12:30:09;;;;;;;;;;;;;;;26.97;40.76;97032.53;5220504;22;5802;-67
2022/07/03 12:32:13;;;;;;;;;;;;;;;27.10;40.75;97033.72;5221673;22;7632;-67
2022/07/03 12:34:17;;;;;;;;;;;;;;;27.11;40.39;97019.06;5221934;22;5731;-65
2022/07/03 12:36:20;;;;;;;;;;;;;;;27.13;40.58;97029.63;5220406;22;5766;-67
2022/07/03 12:38:29;;;;;;;;;;;;;;;27.10;40.25;97028.28;5221309;22;5702;-66
2022/07/03 12:40:32;;;;;;;;;;;;;;;27.12;40.15;97015.25;5193156;22;5630;-68
2022/07/03 12:42:44;;;;;;;;;;;;;;;27.24;39.98;97023.75;5194073;22;5733;-67
2022/07/03 12:44:57;;;;;;;;;;;;;;;27.30;39.86;97020.97;5222704;22;5707;-66
2022/07/03 12:47:02;;;;;;;;;;;;;;;27.27;39.66;97017.72;5222103;22;5760;-67
2022/07/03 12:49:10;;;;;;;;;;;;;;;27.21;40.00;97018.09;5222514;22;5690;-67
2022/07/03 12:51:13;;;;;;;;;;;;;;;27.21;39.88;97018.91;5222439;22;5607;-66
2022/07/03 12:53:29;;;;;;;;;;;;;;;27.32;39.70;97016.84;5221950;22;5706;-67
2022/07/03 12:55:32;;;;;;;;;;;;;;;27.42;39.46;97013.16;5196631;22;5792;-66
2022/07/03 13:00:05;;;;;;;;;;;;;;;27.32;39.37;97024.19;5196923;22;5878;-65
2022/07/03 13:02:10;;;;;;;;;;;;;;;27.31;39.40;97012.53;5196650;22;5823;-66
2022/07/03 13:04:17;;;;;;;;;;;;;;;27.30;39.57;96999.25;5196213;22;5823;-66
2022/07/03 13:06:24;;;;;;;;;;;;;;;27.37;39.74;97000.47;5196639;22;5873;-66
2022/07/03 13:08:30;;;;;;;;;;;;;;;27.43;39.68;97001.22;5195932;22;5798;-66
2022/07/03 13:10:34;;;;;;;;;;;;;;;27.46;39.70;96989.75;5196279;22;5818;-66
2022/07/03 13:12:46;;;;;;;;;;;;;;;27.45;39.94;96988.94;5196719;22;5815;-66
2022/07/03 13:14:59;;;;;;;;;;;;;;;27.45;39.94;96993.56;5195302;22;5890;-66
2022/07/03 13:17:02;;;;;;;;;;;;;;;27.52;40.12;96988.53;5196084;22;5834;-66
2022/07/03 13:19:08;;;;;;;;;;;;;;;27.49;39.94;96991.84;5195861;22;5835;-66
2022/07/03 13:21:11;;;;;;;;;;;;;;;27.46;40.11;96989.75;5196540;22;5855;-66
2022/07/03 13:23:14;;;;;;;;;;;;;;;27.51;40.02;96989.66;5196396;22;5289;-66
2022/07/03 13:25:17;;;;;;;;;;;;;;;27.51;40.48;96978.78;5196069;22;5827;-66
2022/07/03 13:27:20;;;;;;;;;;;;;;;27.58;40.45;96970.28;5195828;22;5747;-66
2022/07/03 13:29:23;;;;;;;;;;;;;;;27.62;40.43;96969.38;5195474;22;5835;-66
2022/07/03 13:31:27;;;;;;;;;;;;;;;27.60;40.67;96970.78;5195455;22;5902;-66
2022/07/03 13:33:31;;;;;;;;;;;;;;;27.63;40.63;96972.88;5195947;22;5886;-66
2022/07/03 13:35:36;;;;;;;;;;;;;;;27.61;40.53;96978.63;5193667;22;5827;-66
2022/07/03 13:37:39;;;;;;;;;;;;;;;27.59;40.70;96969.97;5194631;22;5817;-66
2022/07/03 13:39:42;;;;;;;;;;;;;;;27.59;40.56;96978.13;5168082;23;5781;-67
2022/07/03 13:41:45;;;;;;;;;;;;;;;27.54;40.50;96973.59;5195928;22;5827;-66
2022/07/03 13:43:48;;;;;;;;;;;;;;;27.52;40.69;96969.53;5196262;22;5825;-66
2022/07/03 13:45:51;;;;;;;;;;;;;;;27.53;40.54;96977.41;5196411;22;5866;-66
2022/07/03 13:47:54;;;;;;;;;;;;;;;27.54;40.59;96967.34;5195739;22;5826;-66
2022/07/03 13:49:57;;;;;;;;;;;;;;;27.59;40.53;96969.97;5196278;22;5812;-67
2022/07/03 13:52:02;;;;;;;;;;;;;;;27.63;40.46;96975.59;5195503;22;5867;-66
2022/07/03 13:54:05;;;;;;;;;;;;;;;27.66;40.32;96972.34;5205350;22;5881;-66
2022/07/03 13:56:08;;;;;;;;;;;;;;;27.74;40.27;96968.91;5222036;22;5837;-66
2022/07/03 13:58:10;;;;;;;;;;;;;;;27.77;40.19;96971.06;5221412;22;5706;-66
2022/07/03 14:00:15;;;;;;;;;;;;;;;27.77;39.90;96971.84;5194452;22;5724;-67
2022/07/03 14:02:18;;;;;;;;;;;;;;;27.77;40.03;96977.28;5221472;22;5611;-67
2022/07/03 14:04:21;;;;;;;;;;;;;;;27.76;39.86;96972.97;5194200;22;5721;-67
2022/07/03 14:06:24;;;;;;;;;;;;;;;27.76;39.62;96974.88;5220435;22;5780;-66
2022/07/03 14:08:28;;;;;;;;;;;;;;;27.76;39.53;96964.81;5193992;22;5741;-66
2022/07/03 14:10:31;;;;;;;;;;;;;;;27.74;39.38;96964.28;5193852;22;7691;-66
2022/07/03 14:12:34;;;;;;;;;;;;;;;27.74;39.57;96960.78;5221537;22;5614;-66
2022/07/03 14:14:37;;;;;;;;;;;;;;;27.71;39.51;96964.91;5221927;22;5694;-66
2022/07/03 14:16:40;;;;;;;;;;;;;;;27.67;39.40;96961.19;5221192;22;7647;-66
2022/07/03 14:18:43;;;;;;;;;;;;;;;27.63;39.61;96959.31;5194349;22;5725;-66
2022/07/03 14:20:46;;;;;;;;;;;;;;;27.62;39.49;96954.97;5194542;22;5751;-66
2022/07/03 14:22:49;;;;;;;;;;;;;;;27.63;39.49;96960.13;5220869;22;5702;-66
2022/07/03 14:24:54;;;;;;;;;;;;;;;27.67;39.17;96961.19;5220943;22;5767;-66
2022/07/03 14:33:59;;;;;;;;;;;;;;;27.76;39.14;96953.16;5220129;22;5698;-65
2022/07/03 14:36:01;;;;;;;;;;;;;;;27.74;39.00;96950.72;5220554;22;6435;-66
2022/07/03 14:38:05;;;;;;;;;;;;;;;27.74;38.96;96950.72;5220519;22;7359;-66
2022/07/03 14:40:10;;;;;;;;;;;;;;;27.75;39.07;96941.47;5219965;22;5698;-65
2022/07/03 14:42:13;;;;;;;;;;;;;;;27.76;39.08;96945.00;5220746;22;5694;-66
2022/07/03 14:44:16;;;;;;;;;;;;;;;27.74;39.13;96939.84;5221258;22;5698;-65
2022/07/03 14:46:19;;;;;;;;;;;;;;;27.71;39.04;96935.03;5221321;22;5702;-66
2022/07/03 14:48:22;;;;;;;;;;;;;;;27.72;39.21;96936.63;5219811;22;5745;-66
2022/07/03 14:50:25;;;;;;;;;;;;;;;27.73;39.03;96926.56;5220468;22;5714;-66
2022/07/03 14:52:28;;;;;;;;;;;;;;;27.72;38.92;96935.81;5220414;22;5706;-66
2022/07/03 14:54:34;;;;;;;;;;;;;;;27.69;39.19;96933.72;5220506;22;5706;-66
2022/07/03 14:56:41;;;;;;;;;;;;;;;27.66;39.04;96937.84;5221014;22;5701;-66
2022/07/03 14:58:51;;;;;;;;;;;;;;;27.62;39.24;96931.34;5221207;22;5702;-66
2022/07/03 15:00:55;;;;;;;;;;;;;;;27.65;39.09;96940.84;5221657;22;5828;-66
2022/07/03 15:03:05;;;;;;;;;;;;;;;27.63;39.19;96935.66;5221184;22;5689;-65
2022/07/03 15:05:10;;;;;;;;;;;;;;;27.62;39.08;96931.34;5221727;22;5698;-66
2022/07/03 15:07:15;;;;;;;;;;;;;;;27.60;39.07;96933.56;5221115;22;6348;-65
2022/07/03 15:09:28;;;;;;;;;;;;;;;27.57;39.29;96928.72;5193761;22;5808;-65
2022/07/03 15:13:57;;;;;;;;;;;;;;;27.63;39.13;96926.72;5220945;22;5693;-65
2022/07/03 15:16:00;;;;;;;;;;;;;;;27.64;39.21;96928.34;5193446;22;5733;-65
2022/07/03 15:18:04;;;;;;;;;;;;;;;27.64;39.16;96937.31;5221301;22;7018;-66
2022/07/03 15:20:10;;;;;;;;;;;;;;;27.65;39.14;96927.28;5221449;22;5695;-65
2022/07/03 15:22:14;;;;;;;;;;;;;;;27.66;39.13;96923.47;5221727;22;5748;-65
2022/07/03 15:24:23;;;;;;;;;;;;;;;27.66;39.10;96913.41;5221105;22;5698;-66
2022/07/03 15:26:26;;;;;;;;;;;;;;;27.70;38.96;96914.41;5221232;22;5725;-67
2022/07/03 15:28:30;;;;;;;;;;;;;;;27.79;38.93;96906.38;5221025;22;5686;-66
2022/07/03 15:30:35;;;;;;;;;;;;;;;27.80;38.75;96900.63;5220784;22;5745;-67
2022/07/03 15:32:38;;;;;;;;;;;;;;;27.76;38.87;96904.25;5221423;22;5702;-67
2022/07/03 15:34:48;;;;;;;;;;;;;;;27.74;38.79;96895.59;5220779;22;6407;-67
2022/07/03 15:36:59;;;;;;;;;;;;;;;27.71;38.96;96901.63;5220890;22;5690;-67
2022/07/03 15:39:26;;;;;;;;;;;;;;;27.69;39.20;96901.94;5220732;22;5714;-67
2022/07/03 15:41:36;;;;;;;;;;;;;;;27.74;38.95;96895.59;5220869;22;5717;-69
2022/07/03 15:43:51;;;;;;;;;;;;;;;27.73;39.13;96892.06;5220662;22;5723;-69
2022/07/03 15:46:03;;;;;;;;;;;;;;;27.79;39.04;96887.34;5221337;22;5686;-68
2022/07/03 15:48:18;;;;;;;;;;;;;;;27.76;38.94;96888.75;5193723;22;5736;-68
2022/07/03 15:50:30;;;;;;;;;;;;;;;27.77;38.95;96895.00;5221286;22;6829;-67
2022/07/03 15:52:33;;;;;;;;;;;;;;;27.76;38.95;96888.75;5221515;22;6442;-67
2022/07/03 15:54:51;;;;;;;;;;;;;;;27.73;39.02;96892.06;5220820;22;7080;-67
2022/07/03 15:56:59;;;;;;;;;;;;;;;27.79;39.31;96890.06;5221052;22;5729;-68
2022/07/03 15:59:04;;;;;;;;;;;;;;;27.85;39.35;96888.84;5221141;22;5697;-69
2022/07/03 16:03:52;;;;;;;;;;;;;;;27.95;39.29;96879.69;5223034;22;5705;-69
2022/07/03 16:05:56;;;;;;;;;;;;;;;27.94;39.42;96878.09;5222554;22;5741;-70
2022/07/03 16:08:02;;;;;;;;;;;;;;;27.91;39.51;96878.69;5222485;22;6129;-68
2022/07/03 16:10:06;;;;;;;;;;;;;;;27.93;39.47;96877.28;5222525;22;5754;-68
2022/07/03 16:12:15;;;;;;;;;;;;;;;27.96;39.74;96876.66;5219404;22;5671;-71
2022/07/03 16:14:18;;;;;;;;;;;;;;;28.04;39.48;96867.00;5221040;22;5721;-70
2022/07/03 16:16:25;;;;;;;;;;;;;;;28.01;39.45;96873.88;5222542;22;5682;-70
2022/07/03 16:18:29;;;;;;;;;;;;;;;28.03;39.65;96868.94;5221874;22;5687;-70
2022/07/03 16:20:33;;;;;;;;;;;;;;;28.06;39.62;96871.03;5222680;22;5698;-69
2022/07/03 16:22:38;;;;;;;;;;;;;;;28.16;39.56;96858.34;5221641;22;5697;-73
2022/07/03 16:24:42;;;;;;;;;;;;;;;28.16;39.43;96853.72;5223750;22;5686;-71
2022/07/03 16:26:45;;;;;;;;;;;;;;;28.17;39.42;96849.88;5224115;22;5059;-69
2022/07/03 16:28:48;;;;;;;;;;;;;;;28.14;39.50;96847.78;5222360;22;5705;-68
2022/07/03 16:30:52;;;;;;;;;;;;;;;28.16;39.38;96837.41;5221198;22;5730;-72
2022/07/03 16:32:57;;;;;;;;;;;;;;;28.26;39.36;96839.91;5222404;22;5726;-70
2022/07/03 16:35:04;;;;;;;;;;;;;;;28.23;39.23;96834.28;5222739;22;5714;-71
2022/07/03 16:37:08;;;;;;;;;;;;;;;28.15;39.42;96827.66;5222272;22;5705;-70
2022/07/03 16:39:23;;;;;;;;;;;;;;;28.17;39.46;96822.69;5221418;22;5690;-72
2022/07/03 16:41:29;;;;;;;;;;;;;;;28.14;39.46;96823.31;5222322;22;5741;-73
2022/07/03 16:43:33;;;;;;;;;;;;;;;28.09;39.40;96831.59;5222564;22;5690;-67
2022/07/03 16:45:36;;;;;;;;;;;;;;;28.11;39.30;96824.75;5222170;22;5741;-70
2022/07/03 16:47:43;;;;;;;;;;;;;;;28.12;39.32;96830.97;5221628;22;5698;-69
2022/07/03 16:49:47;;;;;;;;;;;;;;;28.08;39.35;96844.34;5222619;22;5838;-69
2022/07/03 16:52:03;;;;;;;;;;;;;;;28.05;39.54;96849.59;5221945;22;5855;-74
2022/07/03 16:54:06;;;;;;;;;;;;;;;27.99;39.54;96839.97;5222067;22;5706;-74
2022/07/03 16:56:10;;;;;;;;;;;;;;;27.98;39.56;96841.88;5223835;22;5822;-72
2022/07/03 16:58:15;;;;;;;;;;;;;;;27.99;39.52;96850.81;5221753;22;6467;-73
2022/07/03 17:00:20;;;;;;;;;;;;;;;27.95;39.27;96863.38;5222202;22;5710;-72
2022/07/03 17:02:24;;;;;;;;;;;;;;;27.91;39.54;96875.97;5221686;22;8027;-72
2022/07/03 17:04:28;;;;;;;;;;;;;;;27.88;39.49;96890.19;5194544;22;5880;-69
2022/07/03 17:06:35;;;;;;;;;;;;;;;27.87;39.63;96900.25;5222237;22;6354;-71
2022/07/03 17:08:39;;;;;;;;;;;;;;;27.83;39.68;96897.31;5221972;22;5689;-70
2022/07/03 17:10:46;;;;;;;;;;;;;;;27.83;39.88;96872.84;5222010;22;5702;-71
2022/07/03 17:12:51;;;;;;;;;;;;;;;27.88;39.66;96868.44;5221592;22;5702;-70
2022/07/03 17:14:53;;;;;;;;;;;;;;;28.03;39.58;96868.13;5222327;22;5681;-72
2022/07/03 17:17:01;;;;;;;;;;;;;;;28.23;39.32;96884.00;5193666;22;5729;-69
2022/07/03 17:19:06;;;;;;;;;;;;;;;28.38;39.42;96878.25;5221793;22;5713;-68
2022/07/03 17:21:09;;;;;;;;;;;;;;;28.35;39.25;96868.00;5221746;22;5721;-68
2022/07/03 17:23:17;;;;;;;;;;;;;;;28.34;39.12;96847.38;5222633;22;5686;-69
2022/07/03 17:25:24;;;;;;;;;;;;;;;28.36;39.23;96844.34;5221036;22;5791;-68
2022/07/03 17:27:29;;;;;;;;;;;;;;;28.34;39.20;96833.78;5221782;22;5741;-68
2022/07/03 17:29:43;;;;;;;;;;;;;;;28.41;39.29;96841.50;5222280;22;5693;-68
2022/07/03 17:31:48;;;;;;;;;;;;;;;28.40;39.56;96854.28;5221813;22;5710;-69
2022/07/03 17:33:53;;;;;;;;;;;;;;;28.35;39.40;96862.56;5221764;22;7789;-68
2022/07/03 17:36:04;;;;;;;;;;;;;;;28.37;39.69;96875.84;5194538;22;5057;-69
2022/07/03 17:38:09;;;;;;;;;;;;;;;28.45;39.83;96891.44;5220911;22;5701;-69
2022/07/03 17:40:34;;;;;;;;;;;;;;;28.58;39.99;96904.22;5220876;22;5686;-69
2022/07/03 17:42:40;;;;;;;;;;;;;;;28.61;40.15;96902.78;5221631;22;5698;-69
2022/07/03 17:44:44;;;;;;;;;;;;;;;28.62;40.40;96918.78;5221783;22;5693;-69
2022/07/03 17:46:48;;;;;;;;;;;;;;;28.66;40.42;96913.56;5222027;22;5698;-69
2022/07/03 17:48:53;;;;;;;;;;;;;;;28.66;40.70;96925.25;5221545;22;5715;-69
2022/07/03 17:50:56;;;;;;;;;;;;;;;28.67;41.00;96924.13;5222041;22;5771;-69
2022/07/03 17:52:59;;;;;;;;;;;;;;;28.66;40.96;96925.25;5222021;22;5742;-69
2022/07/03 17:55:06;;;;;;;;;;;;;;;28.65;41.24;96923.63;5221140;22;6690;-69
2022/07/03 17:59:32;;;;;;;;;;;;;;;28.49;42.09;96932.44;5221570;22;5788;-69
2022/07/03 18:01:35;;;;;;;;;;;;;;;28.39;42.38;96949.75;5221649;22;5702;-69
2022/07/03 18:03:38;;;;;;;;;;;;;;;28.33;42.51;96956.41;5221659;22;5816;-69
2022/07/03 18:05:45;;;;;;;;;;;;;;;28.25;42.92;96960.63;5221003;22;5670;-69
2022/07/03 18:07:57;;;;;;;;;;;;;;;28.23;43.33;96968.28;5220080;22;5690;-69
2022/07/03 18:10:02;;;;;;;;;;;;;;;28.19;43.63;96980.84;5219530;22;5079;-69
2022/07/03 18:12:10;;;;;;;;;;;;;;;28.18;43.91;96994.72;5220219;22;5694;-70
2022/07/03 18:14:20;;;;;;;;;;;;;;;28.15;44.15;96998.88;5221199;22;5693;-69
2022/07/03 18:16:28;;;;;;;;;;;;;;;28.13;44.37;97001.09;5221422;22;5690;-69
2022/07/03 18:18:34;;;;;;;;;;;;;;;28.09;44.83;96992.72;5220726;22;5698;-69
2022/07/03 18:20:41;;;;;;;;;;;;;;;28.06;44.94;96957.19;5221599;22;5689;-70
2022/07/03 18:22:46;;;;;;;;;;;;;;;28.05;45.09;96914.81;5220575;22;5774;-69
2022/07/03 18:24:53;;;;;;;;;;;;;;;28.03;45.29;96868.94;5220599;22;5742;-72
2022/07/03 18:26:57;;;;;;;;;;;;;;;27.91;45.36;96851.53;5220530;22;5059;-72
2022/07/03 18:29:00;;;;;;;;;;;;;;;27.78;46.01;96845.81;5220535;22;5690;-72
2022/07/03 18:31:05;;;;;;;;;;;;;;;27.68;46.12;96859.59;5220561;22;5686;-73
2022/07/03 18:33:09;;;;;;;;;;;;;;;27.64;46.41;96898.47;5221472;22;5689;-71
2022/07/03 18:35:14;;;;;;;;;;;;;;;27.62;46.48;96935.97;5221556;22;6779;-72
2022/07/03 18:37:18;;;;;;;;;;;;;;;27.63;46.71;96953.88;5220601;22;5698;-71
2022/07/03 18:39:29;;;;;;;;;;;;;;;27.52;47.22;96947.81;5220290;22;5996;-74
2022/07/03 18:41:33;;;;;;;;;;;;;;;27.48;47.51;96941.38;5220785;22;5707;-68
2022/07/03 18:43:36;;;;;;;;;;;;;;;27.42;47.40;96942.59;5221778;22;5694;-69
2022/07/03 18:45:41;;;;;;;;;;;;;;;27.37;47.24;96951.59;5221627;22;6166;-71
2022/07/03 18:47:45;;;;;;;;;;;;;;;27.34;47.45;96941.34;5220847;22;6478;-73
2022/07/03 18:49:49;;;;;;;;;;;;;;;27.38;47.30;96941.56;5220362;22;5698;-72
2022/07/03 18:52:01;;;;;;;;;;;;;;;27.41;47.28;96963.50;5221731;22;5690;-71
2022/07/03 18:54:09;;;;;;;;;;;;;;;27.46;46.83;96973.47;5222596;22;5690;-84
2022/07/03 18:56:20;;;;;;;;;;;;;;;27.47;47.00;96983.22;5227147;22;5702;-86
2022/07/03 18:58:33;;;;;;;;;;;;;;;27.48;46.87;96995.69;5224588;22;6392;-78
2022/07/03 19:00:41;;;;;;;;;;;;;;;27.46;46.86;97003.31;5222498;22;5697;-80
2022/07/03 19:02:57;;;;;;;;;;;;;;;27.48;46.75;97011.97;5222262;22;5730;-83
2022/07/03 19:05:01;;;;;;;;;;;;;;;27.51;46.87;97030.38;5222520;22;5710;-82
2022/07/03 19:07:09;;;;;;;;;;;;;;;27.53;46.78;97047.19;5222499;22;5701;-79
2022/07/03 19:09:17;;;;;;;;;;;;;;;27.54;46.77;97065.09;5220808;22;5698;-78
2022/07/03 19:11:22;;;;;;;;;;;;;;;27.54;46.98;97075.97;5221450;22;5722;-79
2022/07/03 19:13:28;;;;;;;;;;;;;;;27.53;46.77;97086.03;5221857;22;5714;-82
2022/07/03 19:15:34;;;;;;;;;;;;;;;27.56;46.93;97100.91;5222348;22;5689;-84
2022/07/03 19:17:37;;;;;;;;;;;;;;;27.54;46.91;97116.69;5222490;22;5733;-81
2022/07/03 19:19:42;;;;;;;;;;;;;;;27.54;47.16;97133.00;5221687;22;5738;-79
2022/07/03 19:21:46;;;;;;;;;;;;;;;27.50;47.19;97118.38;5222361;22;5697;-77
2022/07/03 19:23:49;;;;;;;;;;;;;;;27.49;47.52;97130.34;5223893;22;5694;-78
2022/07/03 19:25:52;;;;;;;;;;;;;;;27.44;47.46;97133.94;5222303;22;5698;-82
2022/07/03 19:27:55;;;;;;;;;;;;;;;27.43;47.49;97134.22;5221580;22;5616;-77